Station Historical Data
Daily Summary for May 26, 2017 Units:  Metric    English   Both
« Previous Day
Next Day »
Daily Weekly Monthly Yearly Custom
  High: Low: Average:
Temperature: 25.6 °C 12.2 °C 16.1 °C
Dew Point: 17 °C 10.4 °C 12.1 °C
Humidity: 91% 54% 79%
Wind Speed: 1.6km/h 0km/h 0km/h
Wind Gust: 8km/h - -
Wind- - WSW
Pressure: 1017.8 hPa 1013.4 hPa -
Precipitation: 0 mm    
Historical Graphs
 
 
Tabular Data for May 26, 2017
Time Temperature Dew Point Pressure Wind Wind Speed Wind Gust Humidity Rainfall Rate (Hourly) solar Conditions
00:00 14.4 °C 11.6 °C 1013.4 hPa Calm     83% 0 mm WeatherDisplay:10.37 W/m2 RA
00:10 14.2 °C 11.2 °C 1013.4 hPa Calm     82% 0 mm WeatherDisplay:10.37 W/m2 SCT
00:20 14.2 °C 11.3 °C 1013.8 hPa Calm     83% 0 mm WeatherDisplay:10.37 W/m2 SCT
00:30 14 °C 11.2 °C 1013.8 hPa Calm     83% 0 mm WeatherDisplay:10.37 W/m2 SCT
00:50 13.9 °C 11.2 °C 1013.8 hPa Calm     84% 0 mm WeatherDisplay:10.37 W/m2 SCT
01:00 13.8 °C 11.3 °C 1014.1 hPa Calm     85% 0 mm WeatherDisplay:10.37 W/m2 SCT
01:10 13.7 °C 11.3 °C 1014.1 hPa Calm     85% 0 mm WeatherDisplay:10.37 W/m2 SCT
01:20 13.6 °C 11.1 °C 1014.1 hPa Calm     85% 0 mm WeatherDisplay:10.37 W/m2 SCT
01:30 13.4 °C 10.9 °C 1014.1 hPa Calm     85% 0 mm WeatherDisplay:10.37 W/m2 SCT
01:40 13.4 °C 10.9 °C 1014.4 hPa Calm     85% 0 mm WeatherDisplay:10.37 W/m2 SCT
01:50 13.3 °C 11.1 °C 1014.4 hPa Calm     86% 0 mm WeatherDisplay:10.37 W/m2 SCT
02:00 13.2 °C 10.9 °C 1014.4 hPa Calm     86% 0 mm WeatherDisplay:10.37 W/m2 SCT
02:10 13.2 °C 10.9 °C 1014.4 hPa Calm     86% 0 mm WeatherDisplay:10.37 W/m2 SCT
02:20 13.2 °C 10.9 °C 1014.4 hPa Calm     86% 0 mm WeatherDisplay:10.37 W/m2 SCT
02:40 13 °C 10.7 °C 1014.4 hPa Calm     86% 0 mm WeatherDisplay:10.37 W/m2 SCT
02:50 12.9 °C 10.7 °C 1014.4 hPa Calm     86% 0 mm WeatherDisplay:10.37 W/m2 SCT
03:00 12.9 °C 10.6 °C 1014.4 hPa Calm     86% 0 mm WeatherDisplay:10.37 W/m2 SCT
03:10 12.8 °C 10.6 °C 1014.8 hPa Calm     86% 0 mm WeatherDisplay:10.37 W/m2 SCT
03:20 12.7 °C 10.4 °C 1014.8 hPa Calm     86% 0 mm WeatherDisplay:10.37 W/m2 SCT
03:30 12.7 °C 10.6 °C 1014.4 hPa Calm     87% 0 mm WeatherDisplay:10.37 W/m2 SCT
03:40 12.6 °C 10.5 °C 1014.8 hPa Calm     87% 0 mm WeatherDisplay:10.37 W/m2 SCT
03:50 12.6 °C 10.4 °C 1014.8 hPa Calm   1.6 km/h 87% 0 mm WeatherDisplay:10.37 W/m2 SCT
04:00 12.2 °C 10.4 °C 1014.8 hPa Calm   1.6 km/h 89% 0 mm WeatherDisplay:10.37 W/m2 SCT
04:10 12.2 °C 10.4 °C 1015.1 hPa Calm     89% 0 mm WeatherDisplay:10.37 W/m2 SCT
04:20 12.2 °C 10.4 °C 1015.1 hPa Calm     89% 0 mm WeatherDisplay:10.37 W/m2 SCT
04:30 12.2 °C 10.4 °C 1015.1 hPa Calm     89% 0 mm WeatherDisplay:10.37 W/m2 SCT
04:40 12.2 °C 10.4 °C 1015.1 hPa Calm     89% 0 mm WeatherDisplay:10.37 W/m2 SCT
04:50 12.2 °C 10.4 °C 1015.1 hPa Calm     89% 0 mm WeatherDisplay:10.37 W/m2 SCT
05:00 12.2 °C 10.4 °C 1015.5 hPa Calm     89% 0 mm WeatherDisplay:10.37 W/m2 SCT
05:10 12.2 °C 10.4 °C 1015.5 hPa Calm     89% 0 mm WeatherDisplay:10.37 W/m2 SCT
05:20 12.2 °C 10.4 °C 1015.5 hPa Calm     89% 0 mm WeatherDisplay:10.37 W/m2 SCT
05:30 12.2 °C 10.4 °C 1015.8 hPa Calm     89% 0 mm WeatherDisplay:10.37 W/m2 SCT
05:40 12.2 °C 10.4 °C 1015.8 hPa Calm     89% 0 mm WeatherDisplay:10.37 W/m2 SCT
05:50 12.2 °C 10.4 °C 1015.8 hPa Calm     89% 0 mm WeatherDisplay:10.37 W/m2 SCT
06:00 12.2 °C 10.4 °C 1015.8 hPa Calm     89% 0 mm WeatherDisplay:10.37 W/m2 SCT
06:10 12.2 °C 10.4 °C 1015.8 hPa Calm     89% 0 mm WeatherDisplay:10.37 W/m2 SCT
06:20 12.2 °C 10.4 °C 1016.1 hPa Calm     89% 0 mm WeatherDisplay:10.37 W/m2 SCT
06:30 12.2 °C 10.4 °C 1016.1 hPa Calm     89% 0 mm WeatherDisplay:10.37 W/m2 SCT
06:40 12.2 °C 10.4 °C 1016.1 hPa Calm     89% 0 mm WeatherDisplay:10.37 W/m2 SCT
06:50 12.2 °C 10.4 °C 1016.5 hPa Calm     89% 0 mm WeatherDisplay:10.37 W/m2 SCT
07:00 12.2 °C 10.4 °C 1016.5 hPa Calm     89% 0 mm WeatherDisplay:10.37 W/m2 SCT
07:10 12.2 °C 10.4 °C 1016.5 hPa Calm     89% 0 mm WeatherDisplay:10.37 W/m2 SCT
07:20 12.2 °C 10.4 °C 1016.5 hPa Calm     89% 0 mm WeatherDisplay:10.37 W/m2 SCT
07:30 12.5 °C 10.9 °C 1016.8 hPa Calm     90% 0 mm WeatherDisplay:10.37 W/m2 SCT
07:40 12.9 °C 11.4 °C 1016.8 hPa Calm     91% 0 mm WeatherDisplay:10.37 W/m2 SCT
07:50 13.1 °C 11.5 °C 1016.8 hPa Calm     90% 0 mm WeatherDisplay:10.37 W/m2 SCT
08:00 13.4 °C 11.8 °C 1016.8 hPa Calm     90% 0 mm WeatherDisplay:10.37 W/m2 SCT
08:10 13.8 °C 12.1 °C 1016.8 hPa Calm     89% 0 mm WeatherDisplay:10.37 W/m2 SCT
08:20 14.3 °C 12.4 °C 1017.2 hPa Calm     88% 0 mm WeatherDisplay:10.37 W/m2 SCT
08:30 14.9 °C 12.8 °C 1017.5 hPa Calm     87% 0 mm WeatherDisplay:10.37 W/m2 SCT
08:40 15.6 °C 13.2 °C 1017.5 hPa Calm     86% 0 mm WeatherDisplay:10.37 W/m2 SCT
08:50 16.2 °C 13.6 °C 1017.5 hPa Calm     84% 0 mm WeatherDisplay:10.37 W/m2 SCT
09:00 16.9 °C 13.5 °C 1017.5 hPa Calm   1.6 km/h 80% 0 mm WeatherDisplay:10.37 W/m2 SCT
09:10 17.6 °C 13.7 °C 1017.5 hPa Calm   1.6 km/h 78% 0 mm WeatherDisplay:10.37 W/m2 SCT
09:20 18.3 °C 13.1 °C 1017.8 hPa Calm   1.6 km/h 72% 0 mm WeatherDisplay:10.37 W/m2 SCT
09:30 18.9 °C 13.6 °C 1017.8 hPa Calm     71% 0 mm WeatherDisplay:10.37 W/m2 SCT
09:50 20.1 °C 12.3 °C 1017.8 hPa Calm   1.6 km/h 61% 0 mm WeatherDisplay:10.37 W/m2 SCT
10:00 20.4 °C 12.7 °C 1017.8 hPa South 1.6 km/h 3.2 km/h 61% 0 mm WeatherDisplay:10.37 W/m2 SCT
10:10 21.1 °C 12.5 °C 1017.8 hPa Calm   3.2 km/h 58% 0 mm WeatherDisplay:10.37 W/m2 SCT
10:20 21.6 °C 13.5 °C 1017.8 hPa Calm   4.8 km/h 60% 0 mm WeatherDisplay:10.37 W/m2 SCT
10:30 22.2 °C 13.1 °C 1017.8 hPa Calm   4.8 km/h 56% 0 mm WeatherDisplay:10.37 W/m2 SCT
10:40 22.6 °C 13.9 °C 1017.8 hPa Calm   3.2 km/h 58% 0 mm WeatherDisplay:10.37 W/m2 SCT
10:50 22.6 °C 13.1 °C 1017.8 hPa Calm   3.2 km/h 55% 0 mm WeatherDisplay:10.37 W/m2 SCT
11:00 22.7 °C 13.9 °C 1017.8 hPa Calm   1.6 km/h 58% 0 mm WeatherDisplay:10.37 W/m2 SCT
11:10 22.7 °C 14.2 °C 1017.8 hPa Calm   4.8 km/h 59% 0 mm WeatherDisplay:10.37 W/m2 SCT
11:20 22.6 °C 13.7 °C 1017.8 hPa Calm   8 km/h 57% 0 mm WeatherDisplay:10.37 W/m2 SCT
11:30 22.8 °C 13.6 °C 1017.8 hPa West 1.6 km/h 8 km/h 56% 0 mm WeatherDisplay:10.37 W/m2 SCT
11:40 23.1 °C 13.9 °C 1017.8 hPa West 1.6 km/h 4.8 km/h 56% 0 mm WeatherDisplay:10.37 W/m2 SCT
11:50 23.3 °C 13.7 °C 1017.8 hPa Calm   3.2 km/h 55% 0 mm WeatherDisplay:10.37 W/m2 SCT
12:00 23.6 °C 13.7 °C 1017.8 hPa Calm   3.2 km/h 54% 0 mm WeatherDisplay:10.37 W/m2 SCT
12:10 24 °C 14.1 °C 1017.8 hPa Calm   8 km/h 54% 0 mm WeatherDisplay:10.37 W/m2 SCT
12:20 24.3 °C 14.9 °C 1017.8 hPa Calm   8 km/h 56% 0 mm WeatherDisplay:10.37 W/m2 SCT
12:30 24.4 °C 14.8 °C 1017.8 hPa Calm   4.8 km/h 55% 0 mm WeatherDisplay:10.37 W/m2 SCT
12:40 24.9 °C 14.9 °C 1017.8 hPa Calm   4.8 km/h 54% 0 mm WeatherDisplay:10.37 W/m2 SCT
12:50 25.6 °C 15.9 °C 1017.8 hPa Calm   1.6 km/h 55% 0 mm WeatherDisplay:10.37 W/m2 SCT
23:10 21.2 °C 17 °C 1016.1 hPa Calm     77% 0 mm WeatherDisplay:10.37 W/m2 SCT
23:20 21.1 °C 16.9 °C 1016.1 hPa Calm     77% 0 mm WeatherDisplay:10.37 W/m2 SCT
23:30 21 °C 16.8 °C 1016.1 hPa Calm     77% 0 mm WeatherDisplay:10.37 W/m2 SCT
23:40 20.9 °C 16.7 °C 1016.1 hPa Calm     77% 0 mm WeatherDisplay:10.37 W/m2 SCT
23:50 20.8 °C 16.8 °C 1016.1 hPa Calm     78% 0 mm WeatherDisplay:10.37 W/m2 SCT
Piedmont Bend
Compliments of Weather Underground - 4 mb